Time;durP1;ratioP1;P1;durP2;ratioP2;P2;SDS_P1;SDS_P2;PMS_P1;PMS_P2;Temp;Humidity;BMP_temperature;BMP_pressure;BME280_temperature;BME280_humidity;BME280_pressure;Samples;Min_cycle;Max_cycle;Signal;HPM_P1;HPM_P2
2023/06/04 00:01:57;;;;;;;0.73;0.40;;;24.70;47.50;;;;;;6120524;29;20043;-88
2023/06/04 00:04:59;;;;;;;0.85;0.60;;;24.60;47.50;;;;;;6121726;29;20044;-88
2023/06/04 00:08:02;;;;;;;0.70;0.60;;;26.00;48.80;;;;;;6121432;29;20072;-88
2023/06/04 00:11:06;;;;;;;0.93;0.70;;;23.30;48.40;;;;;;6121898;29;20048;-88
2023/06/04 00:14:08;;;;;;;0.85;0.57;;;22.10;47.30;;;;;;6121358;29;20066;-88
2023/06/04 00:17:11;;;;;;;1.40;0.70;;;24.70;47.90;;;;;;6121562;29;20044;-88
2023/06/04 00:20:15;;;;;;;0.75;0.60;;;24.90;47.10;;;;;;6121638;29;20040;-88
2023/06/04 00:23:17;;;;;;;0.60;0.57;;;24.80;47.20;;;;;;6122292;28;20091;-88
2023/06/04 00:26:20;;;;;;;0.73;0.63;;;24.90;48.00;;;;;;6122302;28;20067;-88
2023/06/04 00:29:23;;;;;;;0.30;0.30;;;24.60;47.50;;;;;;6116111;29;20044;-88
2023/06/04 00:32:25;;;;;;;1.05;0.60;;;25.40;48.40;;;;;;6115773;29;20508;-88
2023/06/04 00:35:27;;;;;;;0.50;0.40;;;25.90;48.60;;;;;;6117201;29;20139;-88
2023/06/04 00:38:30;;;;;;;0.52;0.50;;;24.30;47.90;;;;;;6115859;29;20044;-88
2023/06/04 00:41:32;;;;;;;0.75;0.50;;;24.70;48.20;;;;;;6082399;29;20115;-88
2023/06/04 00:44:34;;;;;;;0.40;0.40;;;23.50;47.30;;;;;;6116867;29;20152;-88
2023/06/04 00:47:36;;;;;;;0.77;0.60;;;25.20;48.20;;;;;;6116571;29;20084;-88
2023/06/04 00:50:38;;;;;;;0.65;0.50;;;24.50;47.70;;;;;;6114592;29;20098;-88
2023/06/04 00:53:40;;;;;;;0.60;0.60;;;24.60;47.10;;;;;;6116269;29;20055;-88
2023/06/04 00:56:44;;;;;;;0.88;0.50;;;24.70;48.00;;;;;;6117182;29;20044;-88
2023/06/04 00:59:45;;;;;;;0.50;0.40;;;24.60;46.90;;;;;;6114790;29;20048;-88
2023/06/04 01:02:51;;;;;;;0.50;0.40;;;24.50;47.90;;;;;;6114368;29;20090;-88
2023/06/04 01:06:01;;;;;;;0.40;0.40;;;24.70;46.90;;;;;;6119442;29;20046;-88
2023/06/04 01:09:06;;;;;;;0.43;0.43;;;23.50;46.30;;;;;;6104932;29;20071;-89
2023/06/04 01:12:08;;;;;;;0.45;0.45;;;26.70;48.50;;;;;;6120921;29;20063;-88
2023/06/04 01:15:11;;;;;;;0.75;0.50;;;23.90;46.60;;;;;;6121196;29;20045;-88
2023/06/04 01:18:27;;;;;;;0.73;0.60;;;24.30;47.20;;;;;;6110588;29;20323;-88
2023/06/04 01:21:33;;;;;;;0.85;0.47;;;22.90;46.00;;;;;;6126020;29;20055;-88
2023/06/04 01:24:37;;;;;;;0.65;0.57;;;24.20;47.60;;;;;;6123826;29;20036;-88
2023/06/04 01:27:42;;;;;;;0.80;0.45;;;22.10;45.40;;;;;;6111675;29;20052;-88
2023/06/04 01:30:47;;;;;;;0.85;0.50;;;24.40;47.50;;;;;;6125388;29;20116;-89
2023/06/04 01:33:51;;;;;;;0.77;0.60;;;24.70;46.80;;;;;;6107648;29;20044;-88
2023/06/04 01:36:53;;;;;;;0.60;0.60;;;24.70;47.20;;;;;;6123744;29;20042;-88
2023/06/04 01:39:56;;;;;;;0.55;0.55;;;25.20;48.30;;;;;;6123213;29;20051;-88
2023/06/04 01:42:58;;;;;;;0.70;0.60;;;24.00;47.40;;;;;;6121460;29;20040;-88
2023/06/04 01:46:00;;;;;;;0.80;0.50;;;24.50;46.90;;;;;;6105618;29;20055;-88
2023/06/04 01:49:01;;;;;;;0.88;0.50;;;26.90;48.90;;;;;;6122529;29;20048;-88
2023/06/04 01:52:03;;;;;;;0.50;0.40;;;24.40;47.40;;;;;;6120402;29;20052;-88
2023/06/04 01:55:07;;;;;;;1.05;0.40;;;24.10;46.60;;;;;;6114312;29;20052;-83
2023/06/04 01:58:09;;;;;;;0.75;0.40;;;24.50;46.60;;;;;;6083586;29;20054;-84
2023/06/04 02:01:11;;;;;;;0.43;0.40;;;23.70;46.30;;;;;;6101241;29;20076;-84
2023/06/04 02:04:13;;;;;;;0.55;0.52;;;24.10;47.30;;;;;;6102850;29;20051;-83
2023/06/04 02:07:17;;;;;;;0.60;0.60;;;24.20;46.70;;;;;;6102489;29;20427;-83
2023/06/04 02:10:20;;;;;;;0.40;0.40;;;23.40;46.70;;;;;;6101926;29;20051;-83
2023/06/04 02:13:21;;;;;;;0.55;0.40;;;24.30;46.70;;;;;;6102710;29;20048;-83
2023/06/04 02:16:23;;;;;;;0.50;0.47;;;24.00;46.80;;;;;;6101009;29;20076;-84
2023/06/04 02:19:26;;;;;;;0.60;0.50;;;24.50;47.10;;;;;;6102459;29;20036;-83
2023/06/04 02:22:27;;;;;;;0.40;0.30;;;23.80;46.50;;;;;;6100493;29;20040;-84
2023/06/04 02:25:31;;;;;;;0.60;0.40;;;24.00;46.90;;;;;;6099707;29;20411;-83
2023/06/04 02:28:33;;;;;;;0.40;0.40;;;24.20;47.20;;;;;;6100837;29;20044;-84
2023/06/04 02:31:34;;;;;;;0.52;0.50;;;24.40;47.10;;;;;;6100315;29;20201;-84
2023/06/04 02:34:37;;;;;;;0.73;0.40;;;22.50;45.90;;;;;;6100441;29;20059;-83
2023/06/04 02:37:38;;;;;;;0.38;0.32;;;21.40;44.70;;;;;;6100473;29;20086;-83
2023/06/04 02:40:42;;;;;;;0.40;0.40;;;24.70;47.30;;;;;;6100280;29;20040;-84
2023/06/04 02:43:44;;;;;;;0.77;0.50;;;24.00;46.10;;;;;;6085188;29;20463;-84
2023/06/04 02:46:46;;;;;;;0.50;0.38;;;24.00;46.80;;;;;;6099941;29;20512;-83
2023/06/04 02:49:47;;;;;;;0.45;0.40;;;25.10;47.60;;;;;;6100145;29;20123;-83
2023/06/04 02:52:49;;;;;;;0.60;0.50;;;24.80;47.40;;;;;;6102984;29;20051;-83
2023/06/04 02:55:52;;;;;;;0.40;0.40;;;25.50;47.20;;;;;;6084691;29;20087;-83
2023/06/04 02:58:56;;;;;;;0.52;0.45;;;24.00;46.20;;;;;;6099892;29;20047;-83
2023/06/04 03:01:58;;;;;;;0.38;0.38;;;22.90;45.30;;;;;;6100453;29;20366;-83
2023/06/04 03:05:02;;;;;;;0.70;0.50;;;24.10;46.80;;;;;;6104666;29;20102;-83
2023/06/04 03:08:04;;;;;;;0.43;0.40;;;22.60;45.50;;;;;;6106297;29;20052;-83
2023/06/04 03:11:07;;;;;;;0.40;0.35;;;24.30;46.50;;;;;;6109363;29;20063;-83
2023/06/04 03:14:09;;;;;;;0.63;0.40;;;23.70;46.00;;;;;;6106400;29;20059;-84
2023/06/04 03:17:11;;;;;;;0.40;0.40;;;23.80;46.10;;;;;;6106477;29;20047;-83
2023/06/04 03:20:13;;;;;;;0.47;0.32;;;24.20;46.50;;;;;;6107656;29;20060;-84
2023/06/04 03:23:14;;;;;;;0.88;0.57;;;24.20;46.50;;;;;;6106666;29;20052;-83
2023/06/04 03:26:17;;;;;;;0.95;0.50;;;26.30;47.60;;;;;;6106582;29;20059;-83
2023/06/04 03:29:18;;;;;;;0.60;0.52;;;25.90;47.30;;;;;;6107810;29;20078;-84
2023/06/04 03:32:20;;;;;;;0.50;0.40;;;24.10;46.80;;;;;;6106861;29;20123;-83
2023/06/04 03:35:23;;;;;;;0.52;0.40;;;24.30;46.50;;;;;;6107956;29;20063;-84
2023/06/04 03:38:25;;;;;;;0.50;0.40;;;24.70;46.30;;;;;;6106752;29;20052;-84
2023/06/04 03:41:27;;;;;;;0.50;0.40;;;24.20;46.40;;;;;;6107816;29;20051;-84
2023/06/04 03:44:29;;;;;;;0.50;0.50;;;24.20;46.40;;;;;;6108925;29;20051;-83
2023/06/04 03:47:32;;;;;;;0.40;0.30;;;24.10;46.10;;;;;;6109853;29;20044;-83
2023/06/04 03:50:33;;;;;;;0.30;0.30;;;22.60;45.60;;;;;;6109184;29;20048;-83
2023/06/04 03:53:37;;;;;;;0.47;0.30;;;24.20;46.10;;;;;;6109344;29;20044;-83
2023/06/04 03:56:39;;;;;;;0.35;0.30;;;23.80;46.00;;;;;;6109792;29;20052;-83
2023/06/04 03:59:44;;;;;;;0.45;0.20;;;24.20;46.10;;;;;;6108466;29;20040;-83
2023/06/04 04:02:48;;;;;;;0.30;0.20;;;23.90;45.70;;;;;;6110101;29;20032;-83
2023/06/04 04:05:58;;;;;;;0.47;0.45;;;21.80;44.60;;;;;;6108677;29;20265;-83
2023/06/04 04:08:59;;;;;;;0.60;0.40;;;23.40;45.70;;;;;;6108634;29;20076;-83
2023/06/04 04:12:02;;;;;;;0.38;0.35;;;23.70;45.80;;;;;;6108896;29;20071;-83
2023/06/04 04:15:04;;;;;;;0.40;0.30;;;23.10;45.60;;;;;;6107999;29;20056;-84
2023/06/04 04:18:08;;;;;;;0.40;0.40;;;24.00;45.50;;;;;;6075406;29;20067;-83
2023/06/04 04:21:10;;;;;;;0.65;0.50;;;22.40;44.80;;;;;;6091078;29;20124;-83
2023/06/04 04:24:22;;;;;;;0.40;0.35;;;23.60;45.50;;;;;;6106083;29;20044;-84
2023/06/04 04:27:25;;;;;;;0.35;0.30;;;23.70;45.30;;;;;;6106542;29;20075;-83
2023/06/04 04:30:28;;;;;;;0.25;0.20;;;24.70;46.20;;;;;;6108355;29;20310;-83
2023/06/04 04:33:32;;;;;;;0.50;0.32;;;23.80;45.70;;;;;;6106115;29;20103;-83
2023/06/04 04:36:36;;;;;;;0.70;0.40;;;25.80;46.60;;;;;;6106395;29;20137;-83
2023/06/04 04:39:38;;;;;;;0.30;0.30;;;24.50;46.20;;;;;;6110870;29;20040;-84
2023/06/04 04:42:41;;;;;;;0.55;0.38;;;23.70;46.00;;;;;;6110973;29;20591;-84
2023/06/04 04:45:45;;;;;;;0.30;0.25;;;23.70;45.40;;;;;;6109921;29;20040;-83
2023/06/04 04:48:46;;;;;;;0.50;0.40;;;23.90;45.70;;;;;;6111087;29;20044;-84
2023/06/04 04:51:49;;;;;;;0.40;0.30;;;23.60;45.90;;;;;;6109773;29;20048;-84
2023/06/04 04:54:55;;;;;;;0.45;0.30;;;24.00;45.40;;;;;;6111701;29;20440;-83
2023/06/04 04:57:59;;;;;;;0.40;0.30;;;24.70;46.00;;;;;;6110392;29;20091;-83
2023/06/04 05:01:02;;;;;;;0.60;0.40;;;23.50;46.20;;;;;;6109948;29;20045;-83
2023/06/04 05:04:04;;;;;;;0.40;0.30;;;23.60;46.10;;;;;;6110267;29;20040;-83
2023/06/04 05:07:11;;;;;;;0.40;0.40;;;23.70;45.50;;;;;;6111104;29;20044;-83
2023/06/04 05:10:13;;;;;;;0.40;0.40;;;23.40;45.60;;;;;;6108422;29;20044;-84
2023/06/04 05:13:15;;;;;;;0.75;0.35;;;23.60;45.50;;;;;;6108305;29;20148;-84
2023/06/04 05:16:23;;;;;;;0.60;0.50;;;23.70;46.00;;;;;;6108948;29;20044;-83
2023/06/04 05:19:25;;;;;;;0.50;0.40;;;23.80;45.90;;;;;;6108784;29;20044;-83
2023/06/04 05:22:28;;;;;;;0.38;0.30;;;23.90;45.70;;;;;;6109805;29;20040;-84
2023/06/04 05:25:32;;;;;;;0.40;0.30;;;23.70;45.60;;;;;;6109592;29;20036;-84
2023/06/04 05:28:38;;;;;;;0.50;0.38;;;23.40;45.80;;;;;;6109275;29;20048;-83
2023/06/04 05:31:40;;;;;;;0.35;0.35;;;23.70;46.00;;;;;;6108194;29;20048;-83
2023/06/04 05:34:47;;;;;;;0.38;0.30;;;22.40;45.30;;;;;;6108150;29;20044;-83
2023/06/04 05:37:53;;;;;;;0.35;0.35;;;23.40;45.60;;;;;;6109482;29;20043;-83
2023/06/04 05:40:58;;;;;;;0.47;0.25;;;23.70;45.50;;;;;;6110420;29;20132;-83
2023/06/04 05:44:05;;;;;;;0.30;0.30;;;23.70;45.50;;;;;;6108503;29;20047;-83
2023/06/04 05:47:07;;;;;;;0.57;0.50;;;23.70;46.10;;;;;;6110551;29;20040;-84
2023/06/04 05:50:09;;;;;;;0.30;0.30;;;22.10;45.00;;;;;;6109020;29;20123;-83
2023/06/04 05:53:11;;;;;;;0.30;0.30;;;23.80;45.00;;;;;;6110504;29;20040;-83
2023/06/04 05:56:14;;;;;;;0.55;0.40;;;23.60;45.50;;;;;;6109089;29;20132;-83
2023/06/04 05:59:16;;;;;;;0.40;0.40;;;23.50;45.90;;;;;;6108429;29;20060;-83
2023/06/04 06:02:18;;;;;;;0.38;0.38;;;22.90;45.80;;;;;;6109654;29;20059;-83
2023/06/04 06:05:20;;;;;;;0.40;0.40;;;23.60;45.80;;;;;;6108737;29;20052;-83
2023/06/04 06:08:22;;;;;;;0.35;0.30;;;22.00;44.60;;;;;;6107569;29;20068;-83
2023/06/04 06:11:26;;;;;;;0.40;0.40;;;23.50;45.40;;;;;;6091022;29;20044;-83
2023/06/04 06:14:29;;;;;;;0.45;0.32;;;23.50;46.00;;;;;;6107475;29;20139;-83
2023/06/04 06:17:32;;;;;;;0.55;0.50;;;22.10;44.70;;;;;;6108755;29;20076;-83
2023/06/04 06:20:34;;;;;;;0.60;0.60;;;23.40;45.20;;;;;;6106659;29;20067;-83
2023/06/04 06:23:36;;;;;;;0.45;0.38;;;22.80;45.00;;;;;;6108710;29;20048;-83
2023/06/04 06:26:39;;;;;;;0.50;0.40;;;23.30;45.20;;;;;;6108012;29;20067;-84
2023/06/04 06:29:44;;;;;;;0.30;0.30;;;23.40;45.70;;;;;;6109155;29;20040;-83
2023/06/04 06:32:48;;;;;;;0.50;0.50;;;23.40;45.80;;;;;;6107887;29;20370;-83
2023/06/04 06:35:50;;;;;;;0.68;0.40;;;23.60;45.90;;;;;;6107879;29;20056;-83
2023/06/04 06:38:52;;;;;;;0.55;0.40;;;23.60;45.70;;;;;;6107915;29;20574;-83
2023/06/04 06:41:54;;;;;;;0.28;0.20;;;23.40;44.90;;;;;;6107213;29;20452;-83
2023/06/04 06:45:01;;;;;;;0.20;0.20;;;23.30;44.90;;;;;;6057241;29;20053;-83
2023/06/04 06:48:04;;;;;;;0.30;0.30;;;23.50;45.10;;;;;;6038939;29;20195;-83
2023/06/04 06:51:05;;;;;;;0.20;0.20;;;23.70;44.60;;;;;;6040331;29;20049;-83
2023/06/04 06:54:09;;;;;;;0.38;0.30;;;23.80;45.50;;;;;;6039620;29;20049;-83
2023/06/04 06:57:10;;;;;;;0.40;0.40;;;23.70;44.90;;;;;;6054637;29;20048;-83
2023/06/04 07:00:13;;;;;;;0.30;0.30;;;23.30;45.10;;;;;;6053893;29;20108;-83
2023/06/04 07:03:17;;;;;;;0.70;0.50;;;23.60;44.50;;;;;;6039683;29;20076;-83
2023/06/04 07:06:20;;;;;;;0.40;0.40;;;23.70;45.30;;;;;;6055027;29;20057;-83
2023/06/04 07:09:25;;;;;;;0.47;0.47;;;23.90;44.90;;;;;;6040485;29;20080;-83
2023/06/04 07:12:28;;;;;;;0.25;0.20;;;23.90;44.40;;;;;;6055728;29;20140;-83
2023/06/04 07:15:31;;;;;;;0.32;0.32;;;26.90;47.30;;;;;;6062660;29;20534;-83
2023/06/04 07:18:33;;;;;;;0.28;0.28;;;23.20;44.70;;;;;;6103497;29;20056;-83
2023/06/04 07:21:35;;;;;;;0.30;0.30;;;23.70;44.70;;;;;;6104487;29;20048;-83
2023/06/04 07:24:37;;;;;;;0.50;0.40;;;22.00;43.90;;;;;;6104996;29;20519;-83
2023/06/04 07:27:39;;;;;;;0.85;0.35;;;23.60;44.90;;;;;;6105194;29;20048;-83
2023/06/04 07:30:41;;;;;;;0.25;0.25;;;24.00;44.90;;;;;;6102972;29;20048;-83
2023/06/04 07:33:44;;;;;;;0.40;0.40;;;21.90;43.60;;;;;;6088505;29;20110;-83
2023/06/04 07:36:45;;;;;;;0.40;0.40;;;23.50;44.50;;;;;;6088387;29;20116;-83
2023/06/04 07:39:49;;;;;;;0.60;0.40;;;23.20;44.50;;;;;;6105274;29;20040;-83
2023/06/04 07:42:51;;;;;;;0.10;0.10;;;23.60;44.10;;;;;;6103896;29;20052;-83
2023/06/04 07:45:55;;;;;;;0.28;0.22;;;23.30;44.60;;;;;;6104829;29;20051;-83
2023/06/04 07:48:56;;;;;;;0.30;0.30;;;24.00;42.90;;;;;;6105029;29;20040;-83
2023/06/04 07:51:58;;;;;;;0.40;0.30;;;24.50;45.00;;;;;;6105328;29;20047;-83
2023/06/04 07:55:00;;;;;;;0.20;0.20;;;25.60;46.10;;;;;;6103922;29;20047;-83
2023/06/04 07:58:02;;;;;;;0.40;0.38;;;25.50;45.30;;;;;;6103904;29;20044;-83
2023/06/04 08:01:08;;;;;;;0.43;0.30;;;23.80;44.60;;;;;;6104140;29;20590;-83
2023/06/04 08:04:10;;;;;;;0.40;0.30;;;23.80;45.50;;;;;;6105810;29;20051;-83
2023/06/04 08:07:12;;;;;;;0.30;0.30;;;23.80;44.70;;;;;;6103684;29;20040;-83
2023/06/04 08:10:14;;;;;;;0.45;0.30;;;23.40;44.60;;;;;;6103559;29;20112;-83
2023/06/04 08:13:16;;;;;;;0.68;0.22;;;22.70;43.60;;;;;;6106040;29;20531;-83
2023/06/04 08:16:18;;;;;;;0.40;0.30;;;23.60;44.80;;;;;;6109144;29;20103;-83
2023/06/04 08:19:20;;;;;;;0.50;0.40;;;23.80;44.20;;;;;;6108711;29;20044;-83
2023/06/04 08:22:22;;;;;;;0.30;0.30;;;23.80;45.00;;;;;;6107191;29;20044;-83
2023/06/04 08:25:24;;;;;;;0.40;0.32;;;23.80;44.60;;;;;;6107282;29;20051;-83
2023/06/04 08:28:25;;;;;;;0.25;0.20;;;23.90;44.30;;;;;;6109414;29;20044;-83
2023/06/04 08:31:29;;;;;;;0.32;0.30;;;23.90;44.20;;;;;;6109113;29;20044;-83
2023/06/04 08:34:30;;;;;;;0.32;0.32;;;23.90;44.50;;;;;;6107867;29;20044;-83
2023/06/04 08:37:32;;;;;;;1.17;0.40;;;23.80;44.40;;;;;;6109234;29;20044;-83
2023/06/04 08:40:34;;;;;;;0.60;0.43;;;23.90;44.80;;;;;;6108362;29;20044;-83
2023/06/04 08:43:37;;;;;;;0.40;0.30;;;23.90;43.90;;;;;;6109497;29;20044;-83
2023/06/04 08:46:40;;;;;;;0.50;0.40;;;23.50;43.60;;;;;;6110187;29;20143;-83
2023/06/04 08:49:46;;;;;;;0.50;0.30;;;24.00;43.90;;;;;;6107374;29;20107;-83
2023/06/04 08:52:49;;;;;;;0.30;0.30;;;23.80;43.70;;;;;;6107090;29;20040;-83
2023/06/04 08:55:55;;;;;;;0.47;0.47;;;26.10;45.00;;;;;;6107590;29;20075;-83
2023/06/04 08:59:01;;;;;;;0.40;0.40;;;24.00;43.90;;;;;;6107502;29;20044;-83
2023/06/04 09:02:04;;;;;;;0.60;0.35;;;24.00;43.60;;;;;;6092002;29;20044;-83
2023/06/04 09:05:08;;;;;;;0.50;0.40;;;24.80;45.10;;;;;;6106866;29;20052;-83
2023/06/04 09:08:15;;;;;;;0.47;0.40;;;24.00;43.90;;;;;;6107482;29;20046;-83
2023/06/04 09:11:21;;;;;;;0.30;0.30;;;24.10;43.70;;;;;;6108029;29;20048;-83
2023/06/04 09:14:23;;;;;;;0.30;0.30;;;24.10;43.90;;;;;;6108525;29;20051;-83
2023/06/04 09:17:26;;;;;;;0.35;0.30;;;24.00;43.90;;;;;;6092332;29;20233;-83
2023/06/04 09:20:29;;;;;;;0.40;0.40;;;25.00;45.10;;;;;;6107310;29;20048;-83
2023/06/04 09:23:31;;;;;;;0.60;0.28;;;24.00;44.60;;;;;;6106607;29;20373;-83
2023/06/04 09:26:33;;;;;;;0.32;0.30;;;24.20;44.60;;;;;;6106464;29;20144;-83
2023/06/04 09:29:36;;;;;;;0.30;0.30;;;24.00;44.90;;;;;;6105835;29;20059;-83
2023/06/04 09:32:38;;;;;;;0.70;0.45;;;24.30;45.00;;;;;;6107330;29;20044;-83
2023/06/04 09:35:40;;;;;;;0.50;0.40;;;23.90;44.90;;;;;;6107505;29;20059;-83
2023/06/04 09:38:42;;;;;;;0.50;0.50;;;24.00;44.70;;;;;;6107726;29;20040;-83
2023/06/04 09:42:00;;;;;;;0.40;0.30;;;23.80;44.30;;;;;;6090571;29;20088;-83
2023/06/04 09:45:02;;;;;;;0.70;0.40;;;24.00;44.50;;;;;;6107010;29;20055;-83
2023/06/04 09:48:04;;;;;;;0.68;0.30;;;23.00;44.50;;;;;;6106703;29;20044;-83
2023/06/04 09:51:13;;;;;;;0.40;0.32;;;24.00;45.00;;;;;;6106270;29;20370;-84
2023/06/04 09:54:14;;;;;;;0.50;0.30;;;24.00;44.50;;;;;;6089272;29;20094;-83
2023/06/04 09:57:17;;;;;;;0.20;0.20;;;24.60;45.30;;;;;;6089447;29;20262;-83
2023/06/04 10:00:21;;;;;;;1.13;0.50;;;24.10;44.50;;;;;;6104190;29;20047;-83
2023/06/04 10:03:32;;;;;;;0.30;0.30;;;23.30;44.10;;;;;;6105039;29;20064;-83
2023/06/04 10:06:38;;;;;;;0.75;0.60;;;26.20;46.30;;;;;;6104997;29;20044;-83
2023/06/04 10:09:45;;;;;;;0.45;0.45;;;23.50;43.40;;;;;;6103917;29;20079;-83
2023/06/04 10:12:50;;;;;;;0.35;0.30;;;24.00;45.20;;;;;;6088404;29;20048;-83
2023/06/04 10:15:52;;;;;;;0.50;0.50;;;24.10;44.80;;;;;;6088961;29;20263;-83
2023/06/04 10:18:55;;;;;;;0.80;0.50;;;23.10;44.00;;;;;;6104263;29;20099;-83
2023/06/04 10:21:57;;;;;;;0.55;0.40;;;24.40;44.80;;;;;;6104259;29;20324;-83
2023/06/04 10:24:59;;;;;;;0.47;0.40;;;26.40;46.50;;;;;;6103998;29;20057;-83
2023/06/04 10:28:01;;;;;;;0.40;0.40;;;24.50;45.70;;;;;;6104418;29;20040;-83
2023/06/04 10:31:03;;;;;;;0.60;0.40;;;24.20;44.80;;;;;;6104562;29;20052;-83
2023/06/04 10:34:05;;;;;;;0.60;0.50;;;24.60;45.40;;;;;;6105995;29;20143;-83
2023/06/04 10:37:18;;;;;;;0.63;0.60;;;24.30;45.30;;;;;;6106383;29;20048;-83
2023/06/04 10:40:30;;;;;;;0.40;0.40;;;22.70;43.90;;;;;;6111787;29;20056;-84
2023/06/04 10:43:33;;;;;;;1.10;0.50;;;24.30;44.40;;;;;;6112815;29;20116;-84
2023/06/04 10:46:39;;;;;;;0.40;0.30;;;24.60;44.90;;;;;;6111924;29;20079;-83
2023/06/04 10:49:42;;;;;;;0.38;0.20;;;24.40;44.40;;;;;;6112842;29;20036;-84
2023/06/04 10:52:52;;;;;;;0.60;0.52;;;23.40;44.40;;;;;;6112895;29;20044;-84
2023/06/04 10:55:53;;;;;;;0.80;0.60;;;22.40;43.40;;;;;;6095593;29;20071;-83
2023/06/04 10:58:55;;;;;;;0.40;0.32;;;24.30;45.30;;;;;;6110094;29;20048;-84
2023/06/04 11:02:06;;;;;;;1.05;0.60;;;24.30;44.90;;;;;;6108989;29;20051;-83
2023/06/04 11:05:09;;;;;;;0.60;0.50;;;24.70;45.10;;;;;;6108532;29;20103;-84
2023/06/04 11:08:21;;;;;;;0.70;0.50;;;23.80;45.00;;;;;;6109585;29;20052;-83
2023/06/04 11:11:23;;;;;;;0.50;0.50;;;26.30;45.70;;;;;;6079786;29;20100;-84
2023/06/04 11:14:25;;;;;;;0.88;0.75;;;24.50;45.10;;;;;;6108266;29;20063;-83
2023/06/04 11:17:26;;;;;;;0.70;0.40;;;24.70;44.70;;;;;;6106983;29;20044;-83
2023/06/04 11:20:28;;;;;;;0.80;0.68;;;24.50;45.60;;;;;;6109783;29;20044;-84
2023/06/04 11:23:33;;;;;;;0.63;0.60;;;24.40;45.80;;;;;;6108734;29;20539;-83
2023/06/04 11:26:37;;;;;;;0.60;0.60;;;24.90;45.00;;;;;;6108535;29;20123;-83
2023/06/04 11:29:48;;;;;;;0.60;0.50;;;24.90;44.70;;;;;;6108618;29;20044;-84
2023/06/04 11:32:50;;;;;;;0.90;0.80;;;24.70;44.50;;;;;;6107357;29;20474;-84
2023/06/04 11:35:53;;;;;;;0.68;0.60;;;24.50;44.90;;;;;;6107665;29;20456;-83
2023/06/04 11:38:56;;;;;;;0.68;0.52;;;22.50;43.70;;;;;;6108260;29;20048;-84
2023/06/04 11:41:59;;;;;;;0.57;0.57;;;24.50;44.30;;;;;;6107533;29;20052;-84
2023/06/04 11:45:01;;;;;;;0.82;0.75;;;23.30;44.70;;;;;;6109639;29;20416;-84
2023/06/04 11:48:05;;;;;;;0.60;0.60;;;24.30;45.00;;;;;;6107766;29;20052;-84
2023/06/04 11:51:09;;;;;;;0.55;0.50;;;24.80;44.60;;;;;;6108475;29;20139;-84
2023/06/04 11:54:10;;;;;;;0.85;0.57;;;24.70;44.90;;;;;;6108781;29;20052;-84
2023/06/04 11:57:12;;;;;;;0.77;0.70;;;24.40;45.10;;;;;;6109992;29;20515;-83
2023/06/04 12:00:15;;;;;;;0.60;0.60;;;24.90;45.00;;;;;;6107992;29;20055;-84
2023/06/04 12:03:19;;;;;;;0.90;0.80;;;24.10;44.30;;;;;;6108012;29;20334;-84
2023/06/04 12:06:21;;;;;;;0.77;0.68;;;24.70;45.30;;;;;;6109016;29;20048;-83
2023/06/04 12:09:28;;;;;;;1.02;0.93;;;23.20;44.80;;;;;;6108413;29;20055;-84
2023/06/04 12:12:30;;;;;;;0.88;0.70;;;23.50;43.70;;;;;;6110175;29;20048;-84
2023/06/04 12:15:31;;;;;;;0.88;0.60;;;23.00;44.60;;;;;;6108061;29;20087;-84
2023/06/04 12:18:35;;;;;;;1.20;0.70;;;26.80;46.30;;;;;;6106831;29;20100;-84
2023/06/04 12:21:38;;;;;;;0.93;0.63;;;24.80;45.30;;;;;;6106895;29;20055;-84
2023/06/04 12:24:47;;;;;;;0.85;0.60;;;24.90;44.50;;;;;;6090904;29;20084;-84
2023/06/04 12:27:50;;;;;;;0.95;0.80;;;23.20;43.70;;;;;;6106369;29;20048;-84
2023/06/04 12:30:52;;;;;;;0.93;0.75;;;25.00;45.20;;;;;;6107180;29;20040;-84
2023/06/04 12:33:53;;;;;;;0.90;0.70;;;25.00;45.40;;;;;;6107119;29;20071;-83
2023/06/04 12:36:56;;;;;;;1.38;0.80;;;24.50;45.30;;;;;;6105937;29;20059;-84
2023/06/04 12:39:57;;;;;;;0.80;0.70;;;24.50;45.00;;;;;;6107361;29;20044;-84
2023/06/04 12:42:59;;;;;;;1.08;0.77;;;24.70;45.00;;;;;;6105658;29;20074;-83
2023/06/04 12:46:01;;;;;;;1.15;0.82;;;23.40;44.40;;;;;;6106060;29;20478;-84
2023/06/04 12:49:02;;;;;;;0.95;0.88;;;25.00;45.30;;;;;;6105537;29;20084;-84
2023/06/04 12:52:05;;;;;;;1.02;0.88;;;24.40;45.10;;;;;;6106414;29;20419;-84
2023/06/04 12:55:08;;;;;;;1.15;0.80;;;26.30;45.60;;;;;;6107624;29;20040;-83
2023/06/04 12:58:09;;;;;;;0.75;0.70;;;25.10;44.30;;;;;;6105046;29;20051;-84
2023/06/04 13:01:11;;;;;;;0.75;0.70;;;24.90;44.90;;;;;;6108037;29;20044;-84
2023/06/04 13:04:12;;;;;;;1.00;0.75;;;24.90;45.10;;;;;;6109441;29;20111;-84
2023/06/04 13:07:15;;;;;;;1.00;0.80;;;25.10;45.10;;;;;;6110621;29;20052;-84
2023/06/04 13:10:18;;;;;;;1.00;0.90;;;25.40;46.00;;;;;;6111856;29;20036;-84
2023/06/04 13:13:20;;;;;;;1.02;0.80;;;24.90;44.50;;;;;;6109900;29;20048;-84
2023/06/04 13:16:22;;;;;;;1.00;0.85;;;23.00;44.00;;;;;;6093892;29;20091;-84
2023/06/04 13:19:23;;;;;;;0.95;0.75;;;26.00;45.50;;;;;;6110191;29;20414;-84
2023/06/04 13:22:28;;;;;;;0.80;0.80;;;24.50;45.00;;;;;;6110721;29;20048;-84
2023/06/04 13:25:32;;;;;;;0.82;0.80;;;25.00;44.60;;;;;;6107307;29;20068;-84
2023/06/04 13:28:33;;;;;;;1.13;0.70;;;25.30;44.80;;;;;;6110325;29;20052;-84
2023/06/04 13:31:35;;;;;;;0.98;0.88;;;23.60;44.40;;;;;;6109863;29;20100;-84
2023/06/04 13:34:36;;;;;;;0.85;0.80;;;25.30;45.60;;;;;;6109894;29;20523;-84
2023/06/04 13:37:39;;;;;;;0.95;0.82;;;24.80;45.20;;;;;;6109860;29;20044;-84
2023/06/04 13:40:40;;;;;;;0.88;0.77;;;25.10;45.40;;;;;;6109947;29;20044;-84
2023/06/04 13:43:43;;;;;;;0.93;0.75;;;25.10;45.30;;;;;;6109118;29;20055;-84
2023/06/04 13:46:45;;;;;;;0.80;0.70;;;23.90;44.80;;;;;;6110715;29;20044;-83
2023/06/04 13:49:47;;;;;;;1.10;0.95;;;24.40;44.60;;;;;;6110998;29;20064;-84
2023/06/04 13:52:49;;;;;;;0.82;0.70;;;24.80;45.20;;;;;;6108670;29;20143;-84
2023/06/04 13:55:57;;;;;;;1.85;0.70;;;24.60;45.20;;;;;;6109800;29;20047;-83
2023/06/04 13:58:59;;;;;;;1.23;0.90;;;25.40;45.50;;;;;;6111542;29;20047;-84
2023/06/04 14:02:00;;;;;;;0.82;0.82;;;25.20;45.50;;;;;;6109796;29;20052;-84
2023/06/04 14:05:02;;;;;;;1.10;1.00;;;24.90;45.10;;;;;;6109809;29;20044;-84
2023/06/04 14:08:04;;;;;;;1.20;0.90;;;26.50;46.10;;;;;;6109586;29;20048;-83
2023/06/04 14:11:06;;;;;;;1.00;0.90;;;25.20;45.10;;;;;;6110022;29;20068;-84
2023/06/04 14:14:09;;;;;;;1.20;1.10;;;25.10;44.80;;;;;;6109651;29;20056;-84
2023/06/04 14:17:11;;;;;;;1.90;1.10;;;27.30;46.20;;;;;;6110409;29;20047;-84
2023/06/04 14:20:16;;;;;;;1.10;1.00;;;25.20;44.70;;;;;;6109977;29;20044;-84
2023/06/04 14:23:20;;;;;;;1.02;0.93;;;24.50;44.10;;;;;;6110001;29;20511;-84
2023/06/04 14:26:22;;;;;;;1.33;1.10;;;25.30;44.30;;;;;;6110110;29;20044;-83
2023/06/04 14:29:24;;;;;;;1.10;1.00;;;25.10;44.30;;;;;;6111023;29;20044;-84
2023/06/04 14:32:25;;;;;;;1.33;1.20;;;24.70;44.10;;;;;;6108678;29;20040;-84
2023/06/04 14:35:27;;;;;;;1.20;0.90;;;25.50;44.50;;;;;;6109872;29;20075;-84
2023/06/04 14:38:29;;;;;;;1.20;1.00;;;25.70;44.60;;;;;;6111852;29;20042;-83
2023/06/04 14:41:31;;;;;;;1.27;1.17;;;24.30;43.90;;;;;;6108891;29;20419;-84
2023/06/04 14:44:32;;;;;;;1.20;1.10;;;25.30;44.10;;;;;;6108984;29;20043;-83
2023/06/04 14:47:34;;;;;;;1.20;1.10;;;25.20;44.50;;;;;;6110833;29;20044;-83
2023/06/04 14:50:35;;;;;;;1.10;0.85;;;23.90;43.10;;;;;;6111053;29;20590;-83
2023/06/04 14:53:39;;;;;;;1.10;1.00;;;25.90;43.90;;;;;;6108341;29;20051;-83
2023/06/04 14:56:41;;;;;;;1.10;1.00;;;25.60;43.30;;;;;;6109441;29;20044;-83
2023/06/04 14:59:43;;;;;;;1.35;0.93;;;25.50;43.60;;;;;;6088956;29;20095;-84
2023/06/04 15:02:47;;;;;;;1.02;0.90;;;25.00;42.80;;;;;;6107223;29;20055;-83
2023/06/04 15:05:49;;;;;;;1.08;0.98;;;24.10;42.80;;;;;;6109335;29;20048;-83
2023/06/04 15:08:51;;;;;;;1.30;1.00;;;24.40;43.30;;;;;;6108732;29;20059;-83
2023/06/04 15:11:52;;;;;;;1.20;1.00;;;24.80;43.10;;;;;;6109105;29;20064;-83
2023/06/04 15:14:54;;;;;;;1.00;0.90;;;25.30;43.30;;;;;;6107700;29;20048;-84
2023/06/04 15:17:56;;;;;;;1.00;0.90;;;25.10;42.90;;;;;;6107198;29;20526;-84
2023/06/04 15:20:57;;;;;;;1.00;0.85;;;26.10;43.50;;;;;;6106204;29;20052;-84
2023/06/04 15:23:59;;;;;;;1.50;1.35;;;25.00;42.90;;;;;;6105591;29;20271;-84
2023/06/04 15:27:01;;;;;;;1.42;1.05;;;25.00;42.50;;;;;;6104666;29;20043;-84
2023/06/04 15:30:06;;;;;;;0.98;0.88;;;24.60;41.90;;;;;;6105688;29;20048;-83
2023/06/04 15:33:08;;;;;;;1.05;0.90;;;25.30;42.10;;;;;;6105966;29;20048;-83
2023/06/04 15:36:10;;;;;;;1.20;1.08;;;24.50;42.20;;;;;;6106971;29;20079;-83
2023/06/04 15:39:14;;;;;;;1.38;1.05;;;25.10;42.10;;;;;;6104544;29;20067;-84
2023/06/04 15:42:19;;;;;;;1.20;1.08;;;25.30;42.00;;;;;;6106287;29;20040;-83
2023/06/04 15:45:24;;;;;;;1.05;0.95;;;25.20;42.60;;;;;;6106131;29;20115;-84
2023/06/04 15:48:27;;;;;;;1.10;0.80;;;25.50;42.50;;;;;;6107850;29;20042;-83
2023/06/04 15:51:31;;;;;;;0.73;0.70;;;25.40;42.20;;;;;;6107500;29;20048;-84
2023/06/04 15:54:33;;;;;;;0.70;0.60;;;25.50;41.70;;;;;;6106243;29;20055;-83